sensor_id;sensor_type;location;lat;lon;timestamp;P1;durP1;ratioP1;P2;durP2;ratioP2
68866;SDS011;56451;44.804;20.476;2024-02-21T00:01:39;17.58;;;10.68;;
68866;SDS011;56451;44.804;20.476;2024-02-21T00:04:06;20.23;;;11.90;;
68866;SDS011;56451;44.804;20.476;2024-02-21T00:06:31;18.05;;;10.70;;
68866;SDS011;56451;44.804;20.476;2024-02-21T00:08:57;17.40;;;10.57;;
68866;SDS011;56451;44.804;20.476;2024-02-21T00:11:24;18.55;;;10.32;;
68866;SDS011;56451;44.804;20.476;2024-02-21T00:14:09;16.38;;;10.50;;
68866;SDS011;56451;44.804;20.476;2024-02-21T00:16:55;19.02;;;11.30;;
68866;SDS011;56451;44.804;20.476;2024-02-21T00:19:41;21.95;;;13.52;;
68866;SDS011;56451;44.804;20.476;2024-02-21T00:22:27;17.63;;;10.93;;
68866;SDS011;56451;44.804;20.476;2024-02-21T00:25:13;17.92;;;11.10;;
68866;SDS011;56451;44.804;20.476;2024-02-21T00:27:58;20.30;;;11.63;;
68866;SDS011;56451;44.804;20.476;2024-02-21T00:30:44;20.35;;;11.32;;
68866;SDS011;56451;44.804;20.476;2024-02-21T00:33:30;20.08;;;11.77;;
68866;SDS011;56451;44.804;20.476;2024-02-21T00:36:16;17.85;;;11.18;;
68866;SDS011;56451;44.804;20.476;2024-02-21T00:39:02;19.42;;;11.05;;
68866;SDS011;56451;44.804;20.476;2024-02-21T00:41:28;19.35;;;12.43;;
68866;SDS011;56451;44.804;20.476;2024-02-21T00:43:54;25.33;;;12.80;;
68866;SDS011;56451;44.804;20.476;2024-02-21T00:46:19;21.13;;;11.82;;
68866;SDS011;56451;44.804;20.476;2024-02-21T00:48:45;18.90;;;11.95;;
68866;SDS011;56451;44.804;20.476;2024-02-21T00:51:11;21.13;;;12.40;;
68866;SDS011;56451;44.804;20.476;2024-02-21T00:53:37;23.05;;;12.90;;
68866;SDS011;56451;44.804;20.476;2024-02-21T00:56:04;22.38;;;12.98;;
68866;SDS011;56451;44.804;20.476;2024-02-21T00:58:51;20.80;;;12.77;;
68866;SDS011;56451;44.804;20.476;2024-02-21T01:01:36;24.60;;;12.18;;
68866;SDS011;56451;44.804;20.476;2024-02-21T01:04:22;22.05;;;12.95;;
68866;SDS011;56451;44.804;20.476;2024-02-21T01:07:08;24.40;;;13.35;;
68866;SDS011;56451;44.804;20.476;2024-02-21T01:09:54;21.45;;;12.48;;
68866;SDS011;56451;44.804;20.476;2024-02-21T01:12:40;21.90;;;12.60;;
68866;SDS011;56451;44.804;20.476;2024-02-21T01:15:25;22.83;;;13.68;;
68866;SDS011;56451;44.804;20.476;2024-02-21T01:18:11;26.05;;;13.63;;
68866;SDS011;56451;44.804;20.476;2024-02-21T01:20:57;21.55;;;12.60;;
68866;SDS011;56451;44.804;20.476;2024-02-21T01:23:43;24.98;;;12.80;;
68866;SDS011;56451;44.804;20.476;2024-02-21T01:26:29;21.92;;;12.90;;
68866;SDS011;56451;44.804;20.476;2024-02-21T01:29:14;24.35;;;13.68;;
68866;SDS011;56451;44.804;20.476;2024-02-21T01:31:40;21.95;;;13.05;;
68866;SDS011;56451;44.804;20.476;2024-02-21T01:34:06;22.15;;;13.40;;
68866;SDS011;56451;44.804;20.476;2024-02-21T01:36:32;23.70;;;13.70;;
68866;SDS011;56451;44.804;20.476;2024-02-21T01:38:58;25.23;;;14.35;;
68866;SDS011;56451;44.804;20.476;2024-02-21T01:41:24;23.80;;;13.10;;
68866;SDS011;56451;44.804;20.476;2024-02-21T01:43:50;22.63;;;14.10;;
68866;SDS011;56451;44.804;20.476;2024-02-21T01:46:25;23.00;;;13.32;;
68866;SDS011;56451;44.804;20.476;2024-02-21T01:48:56;28.58;;;14.18;;
68866;SDS011;56451;44.804;20.476;2024-02-21T01:51:23;28.23;;;14.50;;
68866;SDS011;56451;44.804;20.476;2024-02-21T01:53:50;33.40;;;18.02;;
68866;SDS011;56451;44.804;20.476;2024-02-21T01:56:17;25.77;;;14.13;;
68866;SDS011;56451;44.804;20.476;2024-02-21T01:58:43;26.98;;;14.90;;
68866;SDS011;56451;44.804;20.476;2024-02-21T02:01:12;26.15;;;14.18;;
68866;SDS011;56451;44.804;20.476;2024-02-21T02:03:37;28.05;;;14.88;;
68866;SDS011;56451;44.804;20.476;2024-02-21T02:06:05;23.73;;;13.37;;
68866;SDS011;56451;44.804;20.476;2024-02-21T02:08:34;23.45;;;13.70;;
68866;SDS011;56451;44.804;20.476;2024-02-21T02:11:01;31.88;;;17.55;;
68866;SDS011;56451;44.804;20.476;2024-02-21T02:13:27;41.03;;;17.05;;
68866;SDS011;56451;44.804;20.476;2024-02-21T02:15:54;25.17;;;13.50;;
68866;SDS011;56451;44.804;20.476;2024-02-21T02:18:20;24.17;;;12.53;;
68866;SDS011;56451;44.804;20.476;2024-02-21T02:20:46;25.13;;;12.30;;
68866;SDS011;56451;44.804;20.476;2024-02-21T02:23:28;22.13;;;13.40;;
68866;SDS011;56451;44.804;20.476;2024-02-21T02:25:55;22.90;;;13.43;;
68866;SDS011;56451;44.804;20.476;2024-02-21T02:28:21;34.88;;;15.55;;
68866;SDS011;56451;44.804;20.476;2024-02-21T02:30:48;24.20;;;14.02;;
68866;SDS011;56451;44.804;20.476;2024-02-21T02:33:14;25.67;;;13.23;;
68866;SDS011;56451;44.804;20.476;2024-02-21T02:35:40;22.17;;;13.23;;
68866;SDS011;56451;44.804;20.476;2024-02-21T02:38:06;38.13;;;16.80;;
68866;SDS011;56451;44.804;20.476;2024-02-21T02:40:35;21.30;;;12.77;;
68866;SDS011;56451;44.804;20.476;2024-02-21T02:43:03;22.70;;;13.05;;
68866;SDS011;56451;44.804;20.476;2024-02-21T02:45:29;22.93;;;12.90;;
68866;SDS011;56451;44.804;20.476;2024-02-21T02:47:55;23.45;;;12.82;;
68866;SDS011;56451;44.804;20.476;2024-02-21T02:50:22;22.85;;;11.90;;
68866;SDS011;56451;44.804;20.476;2024-02-21T02:52:49;19.20;;;12.25;;
68866;SDS011;56451;44.804;20.476;2024-02-21T02:55:15;22.33;;;12.60;;
68866;SDS011;56451;44.804;20.476;2024-02-21T02:57:41;21.52;;;11.85;;
68866;SDS011;56451;44.804;20.476;2024-02-21T03:00:08;19.83;;;12.48;;
68866;SDS011;56451;44.804;20.476;2024-02-21T03:02:38;24.10;;;12.43;;
68866;SDS011;56451;44.804;20.476;2024-02-21T03:05:15;22.33;;;12.95;;
68866;SDS011;56451;44.804;20.476;2024-02-21T03:07:42;38.57;;;18.43;;
68866;SDS011;56451;44.804;20.476;2024-02-21T03:10:08;23.67;;;13.25;;
68866;SDS011;56451;44.804;20.476;2024-02-21T03:12:35;21.88;;;12.65;;
68866;SDS011;56451;44.804;20.476;2024-02-21T03:15:00;25.17;;;16.65;;
68866;SDS011;56451;44.804;20.476;2024-02-21T03:17:27;21.95;;;12.55;;
68866;SDS011;56451;44.804;20.476;2024-02-21T03:19:53;23.17;;;13.15;;
68866;SDS011;56451;44.804;20.476;2024-02-21T03:22:21;30.63;;;13.93;;
68866;SDS011;56451;44.804;20.476;2024-02-21T03:24:47;25.65;;;13.35;;
68866;SDS011;56451;44.804;20.476;2024-02-21T03:27:13;22.45;;;12.90;;
68866;SDS011;56451;44.804;20.476;2024-02-21T03:29:39;22.07;;;13.17;;
68866;SDS011;56451;44.804;20.476;2024-02-21T03:32:05;26.35;;;13.50;;
68866;SDS011;56451;44.804;20.476;2024-02-21T03:34:31;24.38;;;13.25;;
68866;SDS011;56451;44.804;20.476;2024-02-21T03:36:57;22.37;;;13.13;;
68866;SDS011;56451;44.804;20.476;2024-02-21T03:39:24;25.38;;;14.30;;
68866;SDS011;56451;44.804;20.476;2024-02-21T03:41:50;22.63;;;13.30;;
68866;SDS011;56451;44.804;20.476;2024-02-21T03:44:16;20.25;;;13.13;;
68866;SDS011;56451;44.804;20.476;2024-02-21T03:46:42;24.07;;;13.43;;
68866;SDS011;56451;44.804;20.476;2024-02-21T03:49:08;31.60;;;15.20;;
68866;SDS011;56451;44.804;20.476;2024-02-21T03:51:34;26.15;;;14.93;;
68866;SDS011;56451;44.804;20.476;2024-02-21T03:54:00;22.38;;;13.40;;
68866;SDS011;56451;44.804;20.476;2024-02-21T03:56:26;22.45;;;13.43;;
68866;SDS011;56451;44.804;20.476;2024-02-21T03:58:53;23.83;;;12.73;;
68866;SDS011;56451;44.804;20.476;2024-02-21T04:01:18;22.27;;;12.73;;
68866;SDS011;56451;44.804;20.476;2024-02-21T04:03:44;18.73;;;11.83;;
68866;SDS011;56451;44.804;20.476;2024-02-21T04:06:10;17.95;;;11.25;;
68866;SDS011;56451;44.804;20.476;2024-02-21T04:08:36;26.35;;;12.50;;
68866;SDS011;56451;44.804;20.476;2024-02-21T04:11:02;28.50;;;13.53;;
68866;SDS011;56451;44.804;20.476;2024-02-21T04:13:28;19.65;;;10.40;;
68866;SDS011;56451;44.804;20.476;2024-02-21T04:15:54;15.65;;;10.27;;
68866;SDS011;56451;44.804;20.476;2024-02-21T04:18:20;16.77;;;10.77;;
68866;SDS011;56451;44.804;20.476;2024-02-21T04:20:46;19.52;;;11.88;;
68866;SDS011;56451;44.804;20.476;2024-02-21T04:23:12;20.08;;;10.98;;
68866;SDS011;56451;44.804;20.476;2024-02-21T04:25:38;16.20;;;9.37;;
68866;SDS011;56451;44.804;20.476;2024-02-21T04:28:04;20.63;;;10.60;;
68866;SDS011;56451;44.804;20.476;2024-02-21T04:30:30;28.00;;;10.85;;
68866;SDS011;56451;44.804;20.476;2024-02-21T04:32:56;16.77;;;9.45;;
68866;SDS011;56451;44.804;20.476;2024-02-21T04:35:22;14.93;;;8.80;;
68866;SDS011;56451;44.804;20.476;2024-02-21T04:37:49;20.23;;;10.00;;
68866;SDS011;56451;44.804;20.476;2024-02-21T04:40:14;14.93;;;9.23;;
68866;SDS011;56451;44.804;20.476;2024-02-21T04:42:42;20.42;;;9.68;;
68866;SDS011;56451;44.804;20.476;2024-02-21T04:45:08;18.07;;;10.20;;
68866;SDS011;56451;44.804;20.476;2024-02-21T04:47:34;18.52;;;9.88;;
68866;SDS011;56451;44.804;20.476;2024-02-21T04:50:00;19.67;;;12.27;;
68866;SDS011;56451;44.804;20.476;2024-02-21T04:52:26;27.83;;;15.10;;
68866;SDS011;56451;44.804;20.476;2024-02-21T04:54:52;22.90;;;13.02;;
68866;SDS011;56451;44.804;20.476;2024-02-21T04:57:18;23.35;;;12.65;;
68866;SDS011;56451;44.804;20.476;2024-02-21T04:59:44;19.50;;;13.03;;
68866;SDS011;56451;44.804;20.476;2024-02-21T05:02:11;21.63;;;12.55;;
68866;SDS011;56451;44.804;20.476;2024-02-21T05:04:37;24.20;;;13.10;;
68866;SDS011;56451;44.804;20.476;2024-02-21T05:07:04;19.08;;;11.65;;
68866;SDS011;56451;44.804;20.476;2024-02-21T05:09:30;25.63;;;11.82;;
68866;SDS011;56451;44.804;20.476;2024-02-21T05:11:56;18.83;;;12.07;;
68866;SDS011;56451;44.804;20.476;2024-02-21T05:14:24;21.42;;;12.02;;
68866;SDS011;56451;44.804;20.476;2024-02-21T05:16:52;19.95;;;11.63;;
68866;SDS011;56451;44.804;20.476;2024-02-21T05:19:18;21.27;;;11.98;;
68866;SDS011;56451;44.804;20.476;2024-02-21T05:21:44;30.58;;;13.63;;
68866;SDS011;56451;44.804;20.476;2024-02-21T05:24:11;26.63;;;12.85;;
68866;SDS011;56451;44.804;20.476;2024-02-21T05:26:37;18.42;;;10.65;;
68866;SDS011;56451;44.804;20.476;2024-02-21T05:29:03;19.75;;;12.10;;
68866;SDS011;56451;44.804;20.476;2024-02-21T05:31:42;19.13;;;12.07;;
68866;SDS011;56451;44.804;20.476;2024-02-21T05:34:28;18.30;;;10.93;;
68866;SDS011;56451;44.804;20.476;2024-02-21T05:36:54;21.58;;;11.75;;
68866;SDS011;56451;44.804;20.476;2024-02-21T05:39:20;16.48;;;10.77;;
68866;SDS011;56451;44.804;20.476;2024-02-21T05:41:48;21.15;;;11.25;;
68866;SDS011;56451;44.804;20.476;2024-02-21T05:44:15;18.80;;;10.67;;
68866;SDS011;56451;44.804;20.476;2024-02-21T05:46:41;17.88;;;10.70;;
68866;SDS011;56451;44.804;20.476;2024-02-21T05:49:07;19.92;;;11.23;;
68866;SDS011;56451;44.804;20.476;2024-02-21T05:51:34;19.67;;;11.25;;
68866;SDS011;56451;44.804;20.476;2024-02-21T05:54:00;18.40;;;11.43;;
68866;SDS011;56451;44.804;20.476;2024-02-21T05:56:26;20.58;;;11.85;;
68866;SDS011;56451;44.804;20.476;2024-02-21T05:59:12;16.10;;;10.65;;
68866;SDS011;56451;44.804;20.476;2024-02-21T06:01:58;19.40;;;12.38;;
68866;SDS011;56451;44.804;20.476;2024-02-21T06:04:44;17.08;;;11.35;;
68866;SDS011;56451;44.804;20.476;2024-02-21T06:07:23;19.98;;;11.27;;
68866;SDS011;56451;44.804;20.476;2024-02-21T06:09:49;21.75;;;11.60;;
68866;SDS011;56451;44.804;20.476;2024-02-21T06:12:15;17.93;;;10.90;;
68866;SDS011;56451;44.804;20.476;2024-02-21T06:14:41;19.42;;;10.60;;
68866;SDS011;56451;44.804;20.476;2024-02-21T06:17:06;19.52;;;10.93;;
68866;SDS011;56451;44.804;20.476;2024-02-21T06:19:32;16.40;;;10.53;;
68866;SDS011;56451;44.804;20.476;2024-02-21T06:21:58;16.33;;;10.38;;
68866;SDS011;56451;44.804;20.476;2024-02-21T06:24:24;18.20;;;10.60;;
68866;SDS011;56451;44.804;20.476;2024-02-21T06:26:50;16.23;;;10.07;;
68866;SDS011;56451;44.804;20.476;2024-02-21T06:29:16;13.88;;;9.48;;
68866;SDS011;56451;44.804;20.476;2024-02-21T06:31:42;16.75;;;9.88;;
68866;SDS011;56451;44.804;20.476;2024-02-21T06:34:08;15.65;;;9.52;;
68866;SDS011;56451;44.804;20.476;2024-02-21T06:36:33;16.73;;;11.17;;
68866;SDS011;56451;44.804;20.476;2024-02-21T06:38:59;19.30;;;10.55;;
68866;SDS011;56451;44.804;20.476;2024-02-21T06:41:25;15.20;;;9.75;;
68866;SDS011;56451;44.804;20.476;2024-02-21T06:43:51;15.68;;;8.55;;
68866;SDS011;56451;44.804;20.476;2024-02-21T06:46:24;13.82;;;8.55;;
68866;SDS011;56451;44.804;20.476;2024-02-21T06:48:50;14.10;;;7.75;;
68866;SDS011;56451;44.804;20.476;2024-02-21T06:51:16;14.60;;;8.23;;
68866;SDS011;56451;44.804;20.476;2024-02-21T06:53:42;14.10;;;8.05;;
68866;SDS011;56451;44.804;20.476;2024-02-21T06:56:09;12.60;;;7.93;;
68866;SDS011;56451;44.804;20.476;2024-02-21T06:58:35;15.18;;;8.88;;
68866;SDS011;56451;44.804;20.476;2024-02-21T07:01:01;16.13;;;8.97;;
68866;SDS011;56451;44.804;20.476;2024-02-21T07:03:47;14.70;;;8.68;;
68866;SDS011;56451;44.804;20.476;2024-02-21T07:06:34;14.32;;;9.25;;
68866;SDS011;56451;44.804;20.476;2024-02-21T07:09:24;16.48;;;9.40;;
68866;SDS011;56451;44.804;20.476;2024-02-21T07:12:10;17.88;;;10.07;;
68866;SDS011;56451;44.804;20.476;2024-02-21T07:14:55;17.37;;;9.87;;
68866;SDS011;56451;44.804;20.476;2024-02-21T07:17:41;16.38;;;9.02;;
68866;SDS011;56451;44.804;20.476;2024-02-21T07:20:27;16.50;;;9.65;;
68866;SDS011;56451;44.804;20.476;2024-02-21T07:22:54;20.02;;;9.52;;
68866;SDS011;56451;44.804;20.476;2024-02-21T07:25:40;20.95;;;9.60;;
68866;SDS011;56451;44.804;20.476;2024-02-21T07:28:25;16.33;;;9.13;;
68866;SDS011;56451;44.804;20.476;2024-02-21T07:31:10;19.85;;;9.95;;
68866;SDS011;56451;44.804;20.476;2024-02-21T07:33:56;17.33;;;9.98;;
68866;SDS011;56451;44.804;20.476;2024-02-21T07:36:45;16.35;;;9.20;;
68866;SDS011;56451;44.804;20.476;2024-02-21T07:39:30;16.48;;;9.82;;
68866;SDS011;56451;44.804;20.476;2024-02-21T07:42:16;18.80;;;9.30;;
68866;SDS011;56451;44.804;20.476;2024-02-21T07:45:02;17.92;;;9.88;;
68866;SDS011;56451;44.804;20.476;2024-02-21T07:47:48;15.85;;;9.15;;
68866;SDS011;56451;44.804;20.476;2024-02-21T07:50:34;18.10;;;10.45;;
68866;SDS011;56451;44.804;20.476;2024-02-21T07:53:20;18.95;;;10.07;;
68866;SDS011;56451;44.804;20.476;2024-02-21T07:56:06;17.43;;;8.50;;
68866;SDS011;56451;44.804;20.476;2024-02-21T07:58:52;14.65;;;9.05;;
